TimeCDT,TemperatureF,Dew PointF,Humidity,Sea Level PressureIn,VisibilityMPH,Wind Direction,Wind SpeedMPH,Gust SpeedMPH,PrecipitationIn,Events,Conditions,WindDirDegrees,DateUTC
12:15 AM,31.8,31.8,100,30.40,10.0,Calm,Calm,-,N/A,,Clear,0,2013-10-25 05:15:00
12:35 AM,31.6,31.1,98,30.40,10.0,Calm,Calm,-,N/A,,Clear,0,2013-10-25 05:35:00
12:55 AM,32.0,30.6,94,30.41,10.0,Calm,Calm,-,N/A,,Clear,0,2013-10-25 05:55:00
1:15 AM,31.5,30.2,95,30.41,10.0,Calm,Calm,-,N/A,,Clear,0,2013-10-25 06:15:00
1:35 AM,30.9,30.2,97,30.42,10.0,Calm,Calm,-,N/A,,Clear,0,2013-10-25 06:35:00
1:55 AM,30.7,30.2,98,30.42,10.0,Calm,Calm,-,N/A,,Clear,0,2013-10-25 06:55:00
2:15 AM,30.9,30.2,97,30.42,10.0,Calm,Calm,-,N/A,,Clear,0,2013-10-25 07:15:00
2:35 AM,30.6,29.7,96,30.42,10.0,Calm,Calm,-,N/A,,Clear,0,2013-10-25 07:35:00
2:55 AM,30.4,29.3,96,30.43,10.0,Calm,Calm,-,N/A,,Clear,0,2013-10-25 07:55:00
3:15 AM,30.6,28.4,92,30.43,10.0,Calm,Calm,-,N/A,,Clear,0,2013-10-25 08:15:00
3:35 AM,30.9,28.4,90,30.44,10.0,Calm,Calm,-,N/A,,Clear,0,2013-10-25 08:35:00
3:55 AM,29.5,28.2,95,30.44,10.0,Calm,Calm,-,N/A,,Clear,0,2013-10-25 08:55:00
4:15 AM,30.7,29.1,94,30.44,10.0,NNW,3.5,-,N/A,,Clear,330,2013-10-25 09:15:00
4:35 AM,30.6,27.7,89,30.45,10.0,Calm,Calm,-,N/A,,Clear,0,2013-10-25 09:35:00
4:55 AM,31.1,28.2,89,30.46,10.0,Calm,Calm,-,N/A,,Clear,0,2013-10-25 09:55:00
5:15 AM,30.0,27.5,90,30.47,10.0,Calm,Calm,-,N/A,,Clear,0,2013-10-25 10:15:00
5:35 AM,28.9,28.0,96,30.48,10.0,Calm,Calm,-,N/A,,Clear,0,2013-10-25 10:35:00
5:55 AM,28.0,27.3,97,30.49,10.0,Calm,Calm,-,N/A,,Clear,0,2013-10-25 10:55:00
6:15 AM,28.4,28.4,100,30.49,10.0,Calm,Calm,-,N/A,,Clear,0,2013-10-25 11:15:00
6:35 AM,28.0,28.0,100,30.49,10.0,Calm,Calm,-,N/A,,Clear,0,2013-10-25 11:35:00
6:55 AM,28.8,28.8,100,30.50,10.0,North,3.5,-,N/A,,Clear,360,2013-10-25 11:55:00
7:15 AM,28.2,27.7,98,30.50,10.0,NW,3.5,-,N/A,,Clear,320,2013-10-25 12:15:00
7:35 AM,28.6,28.4,99,30.50,10.0,North,3.5,-,N/A,,Clear,350,2013-10-25 12:35:00
7:55 AM,30.2,28.8,94,30.51,10.0,Calm,Calm,-,N/A,,Clear,0,2013-10-25 12:55:00
8:15 AM,31.8,30.0,93,30.51,10.0,Calm,Calm,-,N/A,,Clear,0,2013-10-25 13:15:00
8:35 AM,33.3,29.3,85,30.52,10.0,Calm,Calm,-,N/A,,Clear,0,2013-10-25 13:35:00
8:55 AM,36.0,30.6,81,30.52,10.0,NNE,3.5,-,N/A,,Clear,20,2013-10-25 13:55:00
9:15 AM,38.7,31.3,75,30.53,10.0,Calm,Calm,-,N/A,,Clear,0,2013-10-25 14:15:00
9:35 AM,40.3,28.9,64,30.54,10.0,NNW,4.6,-,N/A,,Clear,340,2013-10-25 14:35:00
9:55 AM,41.2,28.8,61,30.54,10.0,Calm,Calm,-,N/A,,Clear,0,2013-10-25 14:55:00
10:15 AM,42.6,27.0,54,30.53,10.0,NE,3.5,-,N/A,,Clear,50,2013-10-25 15:15:00
10:35 AM,43.7,24.4,47,30.53,10.0,Calm,Calm,-,N/A,,Clear,0,2013-10-25 15:35:00
10:55 AM,44.2,25.2,47,30.53,10.0,ENE,4.6,-,N/A,,Clear,70,2013-10-25 15:55:00
11:15 AM,45.3,25.0,45,30.52,10.0,North,5.8,-,N/A,,Clear,360,2013-10-25 16:15:00
11:35 AM,46.6,25.0,43,30.52,10.0,NNW,5.8,-,N/A,,Clear,330,2013-10-25 16:35:00
11:55 AM,46.6,24.3,42,30.51,10.0,NW,4.6,-,N/A,,Clear,310,2013-10-25 16:55:00
12:15 PM,47.8,24.3,40,30.50,10.0,ENE,4.6,-,N/A,,Clear,70,2013-10-25 17:15:00
12:35 PM,47.8,23.2,38,30.49,10.0,North,4.6,-,N/A,,Clear,10,2013-10-25 17:35:00
12:55 PM,48.6,23.5,37,30.49,10.0,Calm,Calm,-,N/A,,Clear,0,2013-10-25 17:55:00
1:15 PM,49.1,22.8,36,30.47,10.0,NW,3.5,-,N/A,,Clear,320,2013-10-25 18:15:00
1:35 PM,49.1,22.6,35,30.46,10.0,Calm,Calm,-,N/A,,Clear,0,2013-10-25 18:35:00
1:55 PM,50.0,23.2,35,30.45,10.0,Calm,Calm,-,N/A,,Clear,0,2013-10-25 18:55:00
2:15 PM,51.3,22.8,33,30.44,10.0,NNE,3.5,-,N/A,,Clear,20,2013-10-25 19:15:00
2:35 PM,50.9,22.3,33,30.44,10.0,Calm,Calm,-,N/A,,Clear,0,2013-10-25 19:35:00
2:55 PM,50.2,22.3,34,30.43,10.0,Calm,Calm,-,N/A,,Clear,0,2013-10-25 19:55:00
3:15 PM,52.0,23.2,33,30.42,10.0,Calm,Calm,-,N/A,,Clear,0,2013-10-25 20:15:00
3:35 PM,51.6,23.4,33,30.42,10.0,WSW,4.6,-,N/A,,Clear,240,2013-10-25 20:35:00
3:55 PM,51.6,23.7,34,30.41,10.0,SW,6.9,-,N/A,,Clear,230,2013-10-25 20:55:00
4:15 PM,50.7,23.0,34,30.40,7.0,Calm,Calm,-,N/A,,Clear,0,2013-10-25 21:15:00
4:35 PM,50.9,22.3,33,30.39,10.0,SSE,3.5,-,N/A,,Clear,150,2013-10-25 21:35:00
4:55 PM,50.5,22.3,33,30.39,10.0,South,3.5,-,N/A,,Clear,170,2013-10-25 21:55:00
5:15 PM,50.2,23.2,35,30.38,10.0,SW,3.5,-,N/A,,Clear,220,2013-10-25 22:15:00
5:35 PM,49.3,23.9,37,30.38,10.0,Calm,Calm,-,N/A,,Clear,0,2013-10-25 22:35:00
5:55 PM,46.8,27.9,48,30.37,10.0,Calm,Calm,-,N/A,,Clear,0,2013-10-25 22:55:00
6:15 PM,43.7,28.8,56,30.37,10.0,Calm,Calm,-,N/A,,Clear,0,2013-10-25 23:15:00
6:35 PM,41.7,29.7,62,30.37,10.0,Calm,Calm,-,N/A,,Clear,0,2013-10-25 23:35:00
6:55 PM,40.3,30.4,68,30.37,10.0,Calm,Calm,-,N/A,,Clear,0,2013-10-25 23:55:00
7:15 PM,39.2,31.6,74,30.37,10.0,Calm,Calm,-,N/A,,Clear,0,2013-10-26 00:15:00
7:35 PM,37.9,31.6,78,30.37,10.0,Calm,Calm,-,N/A,,Clear,0,2013-10-26 00:35:00
7:55 PM,37.2,31.8,81,30.36,10.0,Calm,Calm,-,N/A,,Clear,0,2013-10-26 00:55:00
8:15 PM,36.0,31.8,85,30.36,10.0,Calm,Calm,-,N/A,,Clear,0,2013-10-26 01:15:00
8:35 PM,35.1,31.5,87,30.35,10.0,Calm,Calm,-,N/A,,Clear,0,2013-10-26 01:35:00
8:55 PM,34.9,31.6,88,30.35,10.0,Calm,Calm,-,N/A,,Clear,0,2013-10-26 01:55:00
9:15 PM,34.5,31.8,90,30.34,10.0,Calm,Calm,-,N/A,,Clear,0,2013-10-26 02:15:00
9:35 PM,33.4,31.6,93,30.34,10.0,Calm,Calm,-,N/A,,Clear,0,2013-10-26 02:35:00
9:55 PM,33.1,32.4,97,30.34,10.0,Calm,Calm,-,N/A,,Clear,0,2013-10-26 02:55:00
10:15 PM,32.5,32.4,99,30.34,10.0,Calm,Calm,-,N/A,,Clear,0,2013-10-26 03:15:00
10:35 PM,32.2,32.2,100,30.34,10.0,Calm,Calm,-,N/A,,Clear,0,2013-10-26 03:35:00
10:55 PM,32.0,32.0,100,30.33,10.0,Calm,Calm,-,N/A,,Clear,0,2013-10-26 03:55:00
11:15 PM,31.8,31.8,100,30.32,10.0,Calm,Calm,-,N/A,,Clear,0,2013-10-26 04:15:00
11:35 PM,31.8,31.8,100,30.31,10.0,Calm,Calm,-,N/A,,Clear,0,2013-10-26 04:35:00
11:55 PM,31.1,31.1,100,30.30,10.0,Calm,Calm,-,N/A,,Clear,0,2013-10-26 04:55:00